X  Close Metar Aviation Weather Data     EGNS Isle of Man Airport
Temperature
14°C Temperature
13°C Dewpoint
94% Humidity



Wind
13 MPH
21 KM/H
6 M/S
11 KTS



220°
SW
Current Conditions

Partly Cloudy Partly Cloudy
Pressure 1004.06 (hPa) - 29.65 (inHg)
Visibility 6 (mile) - 9.7 (km)
Airport
Airport-code EGNS

Location: Isle of Man Airport
Distance: 18 (mi)

Metar:
EGNS 281620Z 22011KT 9999 FEW022 BKN045 14/13 Q1004 NOSIG

Time: 28-05-2024 17:20 BST